Peru, Vermont
Current Conditions -  °F | °C
As of 4:24 PM on Thursday 23 Oct 2014 (Local Time) from KVSF Reporting Station
Haze Haze  
Wind Chill: 45°   Ceiling: 1800
Heat Index: 48°   Visibility: 5mi
Dew Point: 44°   Wind: 7mph
Humidity: 86%   Direction: 20°NNE
Pressure: 29.79"   Gusts: NA
Location:  43.23°N, 72.9°W
Report Text: KVSF 232024Z AUTO 02006KT 5SM BR BKN018 OVC035 09/07 A2979 RMK AO2 RAE1955 P0000 T00890067
Loading
Personal Weather Stations






























Interactive Weather Map
Tropical Storm Tracking
New forecast layout! Learn more

10-Day Weather Forecast

Advertisements
Track Severe Weather on mobile